createdAt,value
2023-03-08T00:00:41.592Z,10.47
2023-03-08T00:03:13.977Z,10.57
2023-03-08T00:05:42.478Z,10.13
2023-03-08T00:08:10.956Z,10.23
2023-03-08T00:10:39.484Z,10.00
2023-03-08T00:13:08.125Z,10.37
2023-03-08T00:15:38.527Z,10.63
2023-03-08T00:18:07.085Z,9.90
2023-03-08T00:20:36.874Z,10.23
2023-03-08T00:23:05.347Z,10.00
2023-03-08T00:25:33.798Z,9.23
2023-03-08T00:28:02.262Z,9.53
2023-03-08T00:30:30.684Z,9.37
2023-03-08T00:32:59.137Z,9.30
2023-03-08T00:35:27.580Z,8.70
2023-03-08T00:37:57.397Z,8.83
2023-03-08T00:40:25.798Z,9.00
2023-03-08T00:42:54.220Z,9.00
2023-03-08T00:45:22.639Z,9.30
2023-03-08T00:47:51.059Z,9.17
2023-03-08T00:50:19.689Z,8.73
2023-03-08T00:52:48.132Z,8.83
2023-03-08T00:55:17.934Z,9.30
2023-03-08T00:57:46.326Z,9.50
2023-03-08T01:00:15.458Z,9.63
2023-03-08T01:02:43.915Z,9.30
2023-03-08T01:05:13.677Z,10.37
2023-03-08T01:07:42.123Z,9.30
2023-03-08T01:10:11.062Z,9.20
2023-03-08T01:12:41.115Z,9.67
2023-03-08T01:15:09.982Z,9.90
2023-03-08T01:17:38.457Z,9.73
2023-03-08T01:20:07.325Z,9.40
2023-03-08T01:22:35.809Z,9.53
2023-03-08T01:25:04.251Z,9.60
2023-03-08T01:27:32.721Z,10.47
2023-03-08T01:30:02.562Z,9.17
2023-03-08T01:32:31.277Z,9.87
2023-03-08T01:35:04.485Z,9.57
2023-03-08T01:37:33.277Z,10.53
2023-03-08T01:40:02.004Z,9.33
2023-03-08T01:42:30.758Z,10.00
2023-03-08T01:44:59.920Z,9.73
2023-03-08T01:47:30.262Z,10.10
2023-03-08T01:50:01.501Z,9.33
2023-03-08T01:52:31.832Z,9.13
2023-03-08T01:55:01.206Z,10.20
2023-03-08T01:57:31.898Z,9.87
2023-03-08T02:00:01.571Z,9.97
2023-03-08T02:02:33.314Z,9.70
2023-03-08T02:05:01.736Z,9.60
2023-03-08T02:07:30.194Z,9.90
2023-03-08T02:09:58.636Z,9.63
2023-03-08T02:12:27.559Z,10.03
2023-03-08T02:14:56.912Z,9.43
2023-03-08T02:17:25.307Z,10.10
2023-03-08T02:19:56.464Z,9.40
2023-03-08T02:22:25.115Z,9.80
2023-03-08T02:24:54.943Z,9.70
2023-03-08T02:27:25.451Z,8.93
2023-03-08T02:29:54.420Z,9.07
2023-03-08T02:32:23.487Z,9.33
2023-03-08T02:34:51.978Z,9.43
2023-03-08T02:37:20.416Z,9.70
2023-03-08T02:39:48.869Z,8.97
2023-03-08T02:42:18.655Z,8.97
2023-03-08T02:44:47.172Z,8.67
2023-03-08T02:47:15.600Z,8.47
2023-03-08T02:49:44.077Z,8.37
2023-03-08T02:52:12.588Z,8.50
2023-03-08T02:54:41.043Z,7.70
2023-03-08T02:57:09.481Z,8.13
2023-03-08T02:59:39.287Z,7.30
2023-03-08T03:02:07.798Z,7.87
2023-03-08T03:04:36.265Z,7.87
2023-03-08T03:07:05.102Z,8.40
2023-03-08T03:09:33.558Z,8.43
2023-03-08T03:12:01.954Z,9.47
2023-03-08T03:14:30.442Z,10.03
2023-03-08T03:17:00.269Z,10.93
2023-03-08T03:19:28.781Z,10.80
2023-03-08T03:21:57.215Z,10.43
2023-03-08T03:24:25.672Z,11.13
2023-03-08T03:26:54.372Z,11.13
2023-03-08T03:29:23.096Z,10.27
2023-03-08T03:31:51.787Z,10.87
2023-03-08T03:34:21.600Z,11.43
2023-03-08T03:36:50.073Z,12.30
2023-03-08T03:39:18.513Z,11.70
2023-03-08T03:41:46.954Z,11.87
2023-03-08T03:44:15.355Z,11.07
2023-03-08T03:46:43.818Z,12.30
2023-03-08T03:49:12.326Z,12.40
2023-03-08T03:51:42.118Z,11.10
2023-03-08T03:54:10.584Z,12.30
2023-03-08T03:56:39.025Z,12.93
2023-03-08T03:59:07.440Z,12.67
2023-03-08T04:01:35.890Z,13.47
2023-03-08T04:04:04.530Z,13.03
2023-03-08T04:06:33.970Z,13.07
2023-03-08T04:09:04.962Z,13.53
2023-03-08T04:11:34.731Z,14.03
2023-03-08T04:14:03.319Z,13.83
2023-03-08T04:16:32.666Z,14.80
2023-03-08T04:19:01.820Z,15.20
2023-03-08T04:21:30.641Z,14.40
2023-03-08T04:24:00.721Z,14.37
2023-03-08T04:26:30.884Z,14.80
2023-03-08T04:29:00.082Z,14.77
2023-03-08T04:31:29.765Z,15.43
2023-03-08T04:33:58.436Z,14.83
2023-03-08T04:36:26.917Z,14.97
2023-03-08T04:38:55.322Z,14.70
2023-03-08T04:41:23.763Z,14.80
2023-03-08T04:43:53.987Z,16.20
2023-03-08T04:46:23.386Z,15.40
2023-03-08T04:48:54.058Z,15.23
2023-03-08T04:51:23.067Z,15.70
2023-03-08T04:53:51.671Z,14.83
2023-03-08T04:56:20.076Z,15.60
2023-03-08T04:58:48.724Z,16.07
2023-03-08T05:01:19.779Z,16.60
2023-03-08T05:03:49.659Z,16.53
2023-03-08T05:06:18.170Z,15.57
2023-03-08T05:08:46.591Z,17.13
2023-03-08T05:11:18.346Z,17.70
2023-03-08T05:13:46.881Z,17.57
2023-03-08T05:16:15.583Z,16.93
2023-03-08T05:18:45.454Z,17.83
2023-03-08T05:21:17.491Z,17.27
2023-03-08T05:23:46.324Z,15.90
2023-03-08T05:26:15.814Z,17.10
2023-03-08T05:28:44.476Z,17.13
2023-03-08T05:31:14.168Z,16.87
2023-03-08T05:33:42.919Z,16.33
2023-03-08T05:36:13.512Z,16.00
2023-03-08T05:38:41.940Z,15.87
2023-03-08T05:41:11.594Z,17.50
2023-03-08T05:43:40.017Z,16.60
2023-03-08T05:46:09.642Z,16.90
2023-03-08T05:48:38.331Z,16.53
2023-03-08T05:51:07.472Z,15.67
2023-03-08T05:53:37.389Z,16.33
2023-03-08T05:56:10.582Z,15.80
2023-03-08T05:58:40.483Z,16.23
2023-03-08T06:01:11.475Z,15.10
2023-03-08T06:03:39.955Z,13.53
2023-03-08T06:06:08.545Z,13.53
2023-03-08T06:08:38.352Z,12.30
2023-03-08T06:11:07.430Z,12.23
2023-03-08T06:13:36.145Z,10.70
2023-03-08T06:16:04.895Z,10.23
2023-03-08T06:18:33.573Z,9.60
2023-03-08T06:21:02.800Z,9.20
2023-03-08T06:23:31.885Z,7.73
2023-03-08T06:26:01.741Z,8.53
2023-03-08T06:28:30.724Z,8.27
2023-03-08T06:30:59.247Z,8.07
2023-03-08T06:33:28.746Z,7.10
2023-03-08T06:35:58.270Z,7.50
2023-03-08T06:38:29.187Z,6.37
2023-03-08T06:40:58.135Z,7.23
2023-03-08T06:43:28.097Z,7.00
2023-03-08T06:45:56.657Z,7.70
2023-03-08T06:48:25.397Z,5.70
2023-03-08T06:50:53.826Z,5.67
2023-03-08T06:53:22.249Z,5.50
2023-03-08T06:55:50.706Z,5.33
2023-03-08T06:58:19.163Z,5.27
2023-03-08T07:00:49.150Z,5.27
2023-03-08T07:03:17.552Z,5.80
2023-03-08T07:05:45.991Z,5.43
2023-03-08T07:08:14.850Z,5.30
2023-03-08T07:10:43.254Z,5.47
2023-03-08T07:13:11.684Z,4.43
2023-03-08T07:15:41.478Z,4.73
2023-03-08T07:18:11.355Z,4.83
2023-03-08T07:20:39.849Z,4.07
2023-03-08T07:23:08.404Z,4.63
2023-03-08T07:25:36.798Z,4.70
2023-03-08T07:28:05.230Z,4.37
2023-03-08T07:30:33.656Z,4.80
2023-03-08T07:33:02.242Z,5.00
2023-03-08T07:35:32.065Z,4.50
2023-03-08T07:38:00.542Z,4.53
2023-03-08T07:40:29.021Z,4.77
2023-03-08T07:42:57.719Z,3.90
2023-03-08T07:45:26.107Z,4.33
2023-03-08T07:47:54.596Z,4.10
2023-03-08T07:50:23.125Z,3.70
2023-03-08T07:52:52.952Z,3.63
2023-03-08T07:55:21.468Z,3.60
2023-03-08T07:57:49.969Z,3.57
2023-03-08T08:00:19.012Z,3.50
2023-03-08T08:02:48.214Z,4.00
2023-03-08T08:05:17.032Z,3.80
2023-03-08T08:07:47.601Z,3.80
2023-03-08T08:10:18.706Z,3.83
2023-03-08T08:12:47.180Z,4.07
2023-03-08T08:15:16.298Z,3.40
2023-03-08T08:17:44.725Z,3.83
2023-03-08T08:20:14.709Z,3.90
2023-03-08T08:22:43.195Z,3.60
2023-03-08T08:25:11.771Z,3.50
2023-03-08T08:27:41.673Z,3.60
2023-03-08T08:30:11.230Z,3.33
2023-03-08T08:32:39.941Z,3.90
2023-03-08T08:35:08.776Z,4.33
2023-03-08T08:37:37.220Z,3.73
2023-03-08T08:40:07.972Z,3.40
2023-03-08T08:42:36.478Z,3.80
2023-03-08T08:45:06.683Z,3.30
2023-03-08T08:47:35.173Z,3.30
2023-03-08T08:50:03.723Z,3.67
2023-03-08T08:52:32.208Z,3.60
2023-03-08T08:55:01.723Z,3.77
2023-03-08T08:57:30.188Z,3.40
2023-03-08T08:59:58.612Z,3.10
2023-03-08T09:02:28.514Z,3.33
2023-03-08T09:04:57.077Z,3.10
2023-03-08T09:07:25.597Z,2.70
2023-03-08T09:09:56.093Z,2.83
2023-03-08T09:12:24.530Z,2.80
2023-03-08T09:14:52.937Z,2.87
2023-03-08T09:17:23.318Z,2.73
2023-03-08T09:19:53.320Z,3.17
2023-03-08T09:22:21.857Z,4.00
2023-03-08T09:24:50.957Z,3.20
2023-03-08T09:27:19.398Z,3.37
2023-03-08T09:29:47.809Z,3.23
2023-03-08T09:32:16.426Z,3.40
2023-03-08T09:34:44.991Z,3.77
2023-03-08T09:37:14.809Z,3.63
2023-03-08T09:39:43.994Z,3.50
2023-03-08T09:42:20.638Z,3.20
2023-03-08T09:44:58.058Z,3.13
2023-03-08T09:47:35.515Z,3.50
2023-03-08T09:50:08.798Z,2.73
2023-03-08T09:52:40.419Z,3.23
2023-03-08T09:55:14.794Z,3.20
2023-03-08T09:57:46.308Z,3.43
2023-03-08T10:00:21.355Z,4.10
2023-03-08T10:02:52.698Z,3.40
2023-03-08T10:05:25.325Z,4.00
2023-03-08T10:07:58.465Z,4.73
2023-03-08T10:10:34.256Z,4.97
2023-03-08T10:13:20.818Z,4.27
2023-03-08T10:15:53.268Z,4.30
2023-03-08T10:18:26.746Z,4.40
2023-03-08T10:20:55.607Z,3.93
2023-03-08T10:23:26.420Z,4.30
2023-03-08T10:25:54.841Z,3.90
2023-03-08T10:28:24.316Z,4.27
2023-03-08T10:30:53.762Z,4.20
2023-03-08T10:33:24.208Z,4.27
2023-03-08T10:35:56.225Z,3.70
2023-03-08T10:38:28.290Z,3.97
2023-03-08T10:41:07.137Z,3.80
2023-03-08T10:43:36.940Z,3.67
2023-03-08T10:46:06.593Z,3.73
2023-03-08T10:48:35.082Z,5.23
2023-03-08T10:51:04.873Z,5.43
2023-03-08T10:53:35.358Z,5.10
2023-03-08T10:56:03.844Z,5.03
2023-03-08T10:58:36.535Z,4.67
2023-03-08T11:01:06.232Z,4.43
2023-03-08T11:03:34.891Z,4.30
2023-03-08T11:06:04.349Z,4.23
2023-03-08T11:08:33.815Z,4.17
2023-03-08T11:11:04.842Z,4.60
2023-03-08T11:13:35.406Z,4.57
2023-03-08T11:16:18.689Z,4.43
2023-03-08T11:18:52.367Z,4.40
2023-03-08T11:21:25.550Z,5.20
2023-03-08T11:23:57.793Z,4.70
2023-03-08T11:26:31.765Z,5.37
2023-03-08T11:29:16.533Z,5.53
2023-03-08T11:31:48.930Z,4.70
2023-03-08T11:34:25.325Z,4.87
2023-03-08T11:36:59.968Z,4.87
2023-03-08T11:39:30.499Z,5.07
2023-03-08T11:42:02.701Z,5.67
2023-03-08T11:44:38.805Z,5.70
2023-03-08T11:47:22.682Z,5.20
2023-03-08T11:49:54.981Z,5.43
2023-03-08T11:52:28.740Z,5.80
2023-03-08T11:55:03.287Z,5.20
2023-03-08T11:57:35.965Z,5.70
2023-03-08T12:00:13.015Z,5.57
2023-03-08T12:02:44.635Z,6.23
2023-03-08T12:05:15.642Z,5.83
2023-03-08T12:07:45.856Z,5.30
2023-03-08T12:10:17.962Z,6.17
2023-03-08T12:12:50.406Z,6.03
2023-03-08T12:15:23.687Z,5.97
2023-03-08T12:17:55.052Z,5.90
2023-03-08T12:20:24.548Z,6.87
2023-03-08T12:22:56.705Z,5.30
2023-03-08T12:25:29.036Z,5.93
2023-03-08T12:28:01.968Z,5.53
2023-03-08T12:30:37.515Z,5.90
2023-03-08T12:33:07.161Z,6.73
2023-03-08T12:35:36.852Z,6.73
2023-03-08T12:38:07.571Z,6.93
2023-03-08T12:40:41.492Z,7.00
2023-03-08T12:43:13.153Z,6.43
2023-03-08T12:45:42.118Z,6.40
2023-03-08T12:48:25.523Z,6.40
2023-03-08T12:51:00.413Z,7.10
2023-03-08T12:53:32.681Z,7.10
2023-03-08T12:56:06.154Z,7.50
2023-03-08T12:58:38.353Z,7.47
2023-03-08T13:01:25.497Z,8.17
2023-03-08T13:03:53.949Z,7.10
2023-03-08T13:06:35.703Z,7.10
2023-03-08T13:09:08.134Z,7.07
2023-03-08T13:11:40.424Z,7.80
2023-03-08T13:14:23.716Z,8.00
2023-03-08T13:16:53.893Z,8.07
2023-03-08T13:19:25.805Z,9.20
2023-03-08T13:21:58.472Z,7.57
2023-03-08T13:24:32.654Z,8.30
2023-03-08T13:27:05.489Z,8.37
2023-03-08T13:29:34.981Z,8.20
2023-03-08T13:32:09.924Z,8.50
2023-03-08T13:34:38.462Z,7.93
2023-03-08T13:37:06.938Z,8.10
2023-03-08T13:39:35.433Z,8.47
2023-03-08T13:42:08.133Z,8.97
2023-03-08T13:44:36.757Z,9.67
2023-03-08T13:47:06.127Z,10.13
2023-03-08T13:49:37.535Z,9.60
2023-03-08T13:52:06.688Z,9.17
2023-03-08T13:54:37.334Z,10.07
2023-03-08T13:57:07.516Z,9.60
2023-03-08T13:59:38.244Z,9.40
2023-03-08T14:02:17.794Z,9.87
2023-03-08T14:04:47.749Z,10.03
2023-03-08T14:07:21.113Z,10.23
2023-03-08T14:09:49.568Z,10.33
2023-03-08T14:12:19.724Z,10.17
2023-03-08T14:14:50.335Z,10.50
2023-03-08T14:17:21.233Z,10.97
2023-03-08T14:19:55.414Z,11.23
2023-03-08T14:22:38.182Z,11.00
2023-03-08T14:25:08.413Z,11.37
2023-03-08T14:27:41.013Z,11.07
2023-03-08T14:30:14.833Z,11.50
2023-03-08T14:32:43.985Z,10.93
2023-03-08T14:35:22.143Z,11.93
2023-03-08T14:37:55.882Z,12.60
2023-03-08T14:40:30.475Z,12.20
2023-03-08T14:43:02.325Z,12.40
2023-03-08T14:45:34.008Z,12.73
2023-03-08T14:48:03.993Z,12.73
2023-03-08T14:50:34.653Z,12.73
2023-03-08T14:53:04.125Z,12.37
2023-03-08T14:55:33.698Z,13.13
2023-03-08T14:58:02.728Z,12.63
2023-03-08T15:00:31.694Z,13.33
2023-03-08T15:03:00.946Z,13.90
2023-03-08T15:05:30.519Z,14.33
2023-03-08T15:08:01.241Z,14.20
2023-03-08T15:10:31.175Z,14.37
2023-03-08T15:12:59.832Z,14.77
2023-03-08T15:15:28.614Z,14.07
2023-03-08T15:17:57.132Z,14.17
2023-03-08T15:20:25.639Z,14.30
2023-03-08T15:22:55.140Z,16.10
2023-03-08T15:25:29.022Z,14.83
2023-03-08T15:27:57.693Z,13.70
2023-03-08T15:30:27.015Z,14.63
2023-03-08T15:32:57.376Z,15.53
2023-03-08T15:35:27.566Z,15.23
2023-03-08T15:37:56.032Z,16.00
2023-03-08T15:40:26.660Z,15.27
2023-03-08T15:42:55.429Z,14.57
2023-03-08T15:45:23.909Z,15.67
2023-03-08T15:48:00.813Z,14.93
2023-03-08T15:50:29.859Z,14.93
2023-03-08T15:52:58.807Z,15.60
2023-03-08T15:55:30.146Z,15.23
2023-03-08T15:57:59.027Z,15.20
2023-03-08T16:00:28.248Z,14.67
2023-03-08T16:02:57.002Z,16.30
2023-03-08T16:05:25.891Z,15.67
2023-03-08T16:07:55.513Z,15.60
2023-03-08T16:10:24.754Z,16.53
2023-03-08T16:12:54.733Z,16.13
2023-03-08T16:15:23.710Z,15.30
2023-03-08T16:17:52.173Z,16.90
2023-03-08T16:20:23.321Z,16.33
2023-03-08T16:22:52.484Z,16.67
2023-03-08T16:25:22.945Z,17.50
2023-03-08T16:27:52.739Z,17.40
2023-03-08T16:30:23.051Z,16.57
2023-03-08T16:32:54.174Z,16.90
2023-03-08T16:35:23.167Z,17.67
2023-03-08T16:37:51.804Z,16.30
2023-03-08T16:40:20.642Z,16.67
2023-03-08T16:42:51.776Z,17.23
2023-03-08T16:45:20.460Z,17.20
2023-03-08T16:47:50.316Z,16.90
2023-03-08T16:50:19.104Z,16.30
2023-03-08T16:52:47.534Z,16.17
2023-03-08T16:55:16.033Z,17.00
2023-03-08T16:57:44.475Z,16.40
2023-03-08T17:00:14.182Z,17.27
2023-03-08T17:02:44.672Z,17.30
2023-03-08T17:05:15.165Z,17.23
2023-03-08T17:07:43.588Z,18.47
2023-03-08T17:10:12.703Z,17.70
2023-03-08T17:12:41.600Z,17.07
2023-03-08T17:15:11.003Z,16.10
2023-03-08T17:17:40.643Z,16.27
2023-03-08T17:20:09.832Z,16.13
2023-03-08T17:22:39.636Z,16.77
2023-03-08T17:25:09.041Z,15.93
2023-03-08T17:27:37.630Z,14.93
2023-03-08T17:30:06.457Z,16.00
2023-03-08T17:32:35.026Z,17.13
2023-03-08T17:35:04.024Z,17.40
2023-03-08T17:37:32.432Z,17.90
2023-03-08T17:40:02.282Z,17.07
2023-03-08T17:42:30.767Z,17.83
2023-03-08T17:44:59.248Z,18.93
2023-03-08T17:47:28.126Z,19.57
2023-03-08T17:49:56.566Z,21.10
2023-03-08T17:52:25.208Z,20.07
2023-03-08T17:54:54.608Z,22.03
2023-03-08T17:57:24.599Z,23.80
2023-03-08T17:59:53.719Z,22.57
2023-03-08T18:02:22.257Z,24.13
2023-03-08T18:04:59.827Z,24.77
2023-03-08T18:07:29.168Z,25.20
2023-03-08T18:09:57.802Z,25.50
2023-03-08T18:12:27.595Z,27.03
2023-03-08T18:14:56.044Z,26.77
2023-03-08T18:17:24.849Z,26.07
2023-03-08T18:19:53.441Z,26.47
2023-03-08T18:22:21.856Z,27.57
2023-03-08T18:24:50.380Z,28.27
2023-03-08T18:27:18.845Z,27.67
2023-03-08T18:29:48.636Z,27.23
2023-03-08T18:32:17.065Z,26.87
2023-03-08T18:34:45.876Z,27.73
2023-03-08T18:37:14.366Z,29.07
2023-03-08T18:39:42.871Z,26.87
2023-03-08T18:42:11.499Z,27.80
2023-03-08T18:44:39.946Z,27.07
2023-03-08T18:47:09.993Z,28.20
2023-03-08T18:49:38.506Z,28.63
2023-03-08T18:52:07.156Z,26.80
2023-03-08T18:54:35.566Z,26.03
2023-03-08T18:57:04.118Z,26.90
2023-03-08T18:59:33.444Z,28.57
2023-03-08T19:02:01.963Z,27.63
2023-03-08T19:04:31.772Z,27.50
2023-03-08T19:07:00.190Z,28.13
2023-03-08T19:09:28.599Z,26.97
2023-03-08T19:11:56.991Z,28.40
2023-03-08T19:14:25.379Z,26.87
2023-03-08T19:16:53.955Z,29.07
2023-03-08T19:19:22.417Z,27.30
2023-03-08T19:21:52.234Z,29.50
2023-03-08T19:24:21.521Z,27.67
2023-03-08T19:26:52.668Z,28.23
2023-03-08T19:29:21.994Z,30.77
2023-03-08T19:31:51.922Z,30.57
2023-03-08T19:34:21.048Z,28.93
2023-03-08T19:36:50.457Z,29.93
2023-03-08T19:39:23.084Z,29.87
2023-03-08T19:41:51.889Z,29.57
2023-03-08T19:44:20.374Z,27.80
2023-03-08T19:46:48.870Z,29.40
2023-03-08T19:49:18.437Z,28.13
2023-03-08T19:51:48.923Z,29.93
2023-03-08T19:54:17.248Z,28.87
2023-03-08T19:56:47.267Z,28.10
2023-03-08T19:59:20.330Z,28.77
2023-03-08T20:01:50.711Z,28.97
2023-03-08T20:04:19.155Z,28.50
2023-03-08T20:06:48.458Z,26.90
2023-03-08T20:09:21.346Z,28.77
2023-03-08T20:11:53.269Z,27.17
2023-03-08T20:14:24.127Z,29.63
2023-03-08T20:16:55.099Z,27.50
2023-03-08T20:19:23.683Z,28.43
2023-03-08T20:21:52.520Z,28.77
2023-03-08T20:24:22.270Z,29.53
2023-03-08T20:26:52.651Z,29.47
2023-03-08T20:29:21.122Z,27.27
2023-03-08T20:31:50.106Z,28.90
2023-03-08T20:34:18.826Z,28.80
2023-03-08T20:36:47.527Z,28.43
2023-03-08T20:39:15.978Z,28.17
2023-03-08T20:41:44.609Z,27.27
2023-03-08T20:44:14.423Z,28.17
2023-03-08T20:46:42.894Z,28.30
2023-03-08T20:49:12.460Z,26.20
2023-03-08T20:51:41.184Z,26.97
2023-03-08T20:54:11.042Z,27.63
2023-03-08T20:56:39.553Z,26.60
2023-03-08T20:59:07.977Z,26.77
2023-03-08T21:01:38.769Z,26.63
2023-03-08T21:04:07.706Z,25.17
2023-03-08T21:06:36.218Z,26.20
2023-03-08T21:09:05.466Z,25.73
2023-03-08T21:11:34.048Z,25.37
2023-03-08T21:14:02.393Z,26.70
2023-03-08T21:16:32.537Z,24.93
2023-03-08T21:19:03.378Z,23.43
2023-03-08T21:21:34.244Z,25.40
2023-03-08T21:24:04.475Z,25.60
2023-03-08T21:26:33.588Z,24.80
2023-03-08T21:29:02.812Z,22.57
2023-03-08T21:31:31.685Z,23.17
2023-03-08T21:34:00.282Z,24.37
2023-03-08T21:36:30.430Z,23.83
2023-03-08T21:38:59.915Z,24.13
2023-03-08T21:41:29.209Z,21.97
2023-03-08T21:43:57.945Z,23.23
2023-03-08T21:46:26.423Z,23.33
2023-03-08T21:48:56.265Z,21.90
2023-03-08T21:51:25.009Z,21.70
2023-03-08T21:53:54.815Z,22.10
2023-03-08T21:56:23.275Z,22.30
2023-03-08T21:58:51.797Z,22.30
2023-03-08T22:01:21.295Z,22.70
2023-03-08T22:03:50.156Z,22.13
2023-03-08T22:06:18.639Z,21.97
2023-03-08T22:08:47.086Z,23.17
2023-03-08T22:11:17.093Z,23.80
2023-03-08T22:13:45.619Z,22.87
2023-03-08T22:16:14.056Z,20.97
2023-03-08T22:18:42.474Z,22.23
2023-03-08T22:21:10.909Z,21.80
2023-03-08T22:23:39.588Z,23.03
2023-03-08T22:26:09.003Z,22.63
2023-03-08T22:28:39.435Z,23.07
2023-03-08T22:31:12.019Z,22.07
2023-03-08T22:33:41.034Z,21.43
2023-03-08T22:36:10.605Z,22.30
2023-03-08T22:38:39.719Z,23.23
2023-03-08T22:41:10.424Z,22.03
2023-03-08T22:43:40.427Z,22.27
2023-03-08T22:46:09.611Z,23.10
2023-03-08T22:48:38.194Z,22.57
2023-03-08T22:51:11.296Z,22.77
2023-03-08T22:53:40.057Z,20.00
2023-03-08T22:56:09.135Z,20.93
2023-03-08T22:58:37.527Z,22.23
2023-03-08T23:01:14.867Z,21.77
2023-03-08T23:03:43.648Z,22.23
2023-03-08T23:06:12.278Z,22.07
2023-03-08T23:08:40.942Z,21.30
2023-03-08T23:11:09.568Z,20.43
2023-03-08T23:13:38.018Z,20.37
2023-03-08T23:16:08.783Z,20.63
2023-03-08T23:18:37.390Z,21.07
2023-03-08T23:21:06.103Z,19.97
2023-03-08T23:23:34.719Z,19.07
2023-03-08T23:26:04.602Z,20.17
2023-03-08T23:28:35.665Z,19.77
2023-03-08T23:31:04.232Z,19.03
2023-03-08T23:33:33.957Z,19.20
2023-03-08T23:36:02.399Z,19.60
2023-03-08T23:38:30.868Z,18.97
2023-03-08T23:40:59.443Z,18.77
2023-03-08T23:43:27.890Z,20.00
2023-03-08T23:45:56.401Z,19.63
2023-03-08T23:48:25.137Z,18.37
2023-03-08T23:50:54.944Z,19.13
2023-03-08T23:53:23.408Z,19.00
2023-03-08T23:55:51.793Z,20.00
2023-03-08T23:58:22.517Z,19.77
